Lawrenceville, GA

4:40 AM EST on January 23, 2017 (GMT -0500)
Bramlett Shoals | | Change Station
Active Advisory: Wind Advisory Active Notice: Public Information Statement

Elev 980 ft 33.96 °N, 83.93 °W | Updated 11 seconds ago

Overcast
Overcast
47.5 °F
Feels Like 48 °F
N
0.0
Wind Variable Wind from South
Gusts 0.0 mph

Today
High -- | Low -- °F
--% Chance of Precip.
Yesterday
High -- | Low -- °F
Precip. -- in
Pressure 29.24 in
Visibility 10.0 miles
Clouds Scattered Clouds 1200 ft
Overcast 2300 ft
Windchill 48 °F
Dew Point 47 °F
Humidity 99%
Rainfall 0.05 in
Snow Depth Not available.
7:38 AM 5:57 PM
Waning Crescent, 20% visible
METAR KWDR 230818Z AUTO 00000KT 10SM DZ SCT012 OVC023 10/09 A2924 RMK AO1
Pressure 29.24 in
Visibility 10.0 miles
Clouds Scattered Clouds 1200 ft
Overcast 2300 ft
Windchill 48 °F
Dew Point 47 °F
Humidity 99%
Rainfall 0.05 in
Snow Depth Not available.
7:38 AM 5:57 PM
Waning Crescent, 20% visible
METAR KWDR 230818Z AUTO 00000KT 10SM DZ SCT012 OVC023 10/09 A2924 RMK AO1

Get Your Daily Forecast Email!

Thanks for signing up!

Be on the lookout for a verification email in your inbox.

You'll start receiving the daily forecast at 8 AM.

×

10-Day Weather Forecast

Almanac

Astronomy

Jan. 23, 2017 Rise Set
Actual Time
Civil Twilight
Nautical Twilight
Astronomical Twilight
Moon
Length of Visible Light
Length of Day
Tomorrow will be .
, % of the Moon is Illuminated

Today's Extremes

State Highs State Lows

Community

WunderPhotos

Upload Photos

1,962,540 photos uploaded!

WunderBlog® & News

Nearby

Air Quality

  Air Quality AQ Index Pollutant
Not available.

Snow Depth

Station Depth Elevation

Earthquake Activity

City Distance Mag. Time & Date
Minimum magnitude displayed is 2.5.

Coastal Water Temperatures

Place Temperature

Stations

Nearby Weather Stations

Station Location Temp. Windchill Dew Point Humidity Wind Precip. Elev Updated Type
                   

Watches & Warnings

Wind Advisory
Issued: 3:10 AM EST Jan. 23, 2017 – National Weather Service

... Wind Advisory remains in effect until 7 PM EST this evening...

* locations... north and central Georgia

* winds... 20 to 30 mph with gusts to 40 mph. Winds will be
southwest this morning... shifting to the northwest by afternoon.

* Timing... through the day today until early evening. Winds may
remain gusty into tonight... particularly in the higher terrain.


* Impacts... these winds may break tree branches and down weaker
trees... particularly those in saturated soils due to recent
heavy rainfall. Unsecured outdoor items may be blown around.

Precautionary/preparedness actions...

A Wind Advisory means that winds of at least 20 mph or wind gusts
of at least 35 mph mph are expected. Winds this strong can make
driving difficult... especially for high profile vehicles. Use
extra caution.